Time;durP1;ratioP1;P1;durP2;ratioP2;P2;SDS_P1;SDS_P2;PMS_P1;PMS_P2;Temp;Humidity;BMP_temperature;BMP_pressure;BME280_temperature;BME280_humidity;BME280_pressure;Samples;Min_cycle;Max_cycle;Signal;HPM_P1;HPM_P2
2022/12/19 00:01:26;;;;;;;58.28;40.40;;;0.40;99.90;;;;;;5152821;27;20035;-81
2022/12/19 00:03:54;;;;;;;54.70;39.30;;;0.40;99.90;;;;;;5166820;27;20407;-82
2022/12/19 00:06:20;;;;;;;56.22;38.92;;;0.40;99.90;;;;;;5126814;27;20051;-81
2022/12/19 00:08:48;;;;;;;52.40;37.03;;;0.50;99.90;;;;;;5044837;28;20050;-81
2022/12/19 00:11:15;;;;;;;54.15;38.05;;;0.50;99.90;;;;;;4949490;28;20047;-83
2022/12/19 00:13:41;;;;;;;55.08;38.58;;;0.50;99.90;;;;;;4964955;28;20054;-83
2022/12/19 00:16:16;;;;;;;52.88;38.60;;;0.50;99.90;;;;;;4954235;28;20105;-83
2022/12/19 00:18:44;;;;;;;53.45;37.10;;;0.50;99.90;;;;;;4841174;29;20394;-84
2022/12/19 00:21:15;;;;;;;56.03;38.25;;;0.60;99.90;;;;;;4841018;29;20037;-83
2022/12/19 00:23:52;;;;;;;52.22;36.72;;;0.60;99.90;;;;;;5214320;27;20127;-82
2022/12/19 00:26:24;;;;;;;53.85;36.78;;;0.60;99.90;;;;;;5143456;27;20039;-82
2022/12/19 00:28:53;;;;;;;53.72;37.15;;;0.60;99.90;;;;;;5139968;27;20397;-82
2022/12/19 00:31:20;;;;;;;48.45;34.33;;;0.60;99.90;;;;;;5130217;27;20090;-82
2022/12/19 00:33:47;;;;;;;51.97;36.22;;;0.60;99.90;;;;;;5118282;27;20091;-82
2022/12/19 00:36:15;;;;;;;48.35;35.20;;;0.60;99.90;;;;;;5062322;28;20041;-82
2022/12/19 00:38:43;;;;;;;47.65;35.90;;;0.70;99.90;;;;;;5037248;28;20045;-83
2022/12/19 00:41:17;;;;;;;49.88;35.85;;;0.70;99.90;;;;;;4968330;28;20033;-83
2022/12/19 00:44:09;;;;;;;48.55;34.97;;;0.70;99.90;;;;;;4890620;29;20052;-83
2022/12/19 00:49:11;;;;;;;47.17;34.00;;;0.70;99.90;;;;;;5196573;27;20144;-82
2022/12/19 00:51:37;;;;;;;48.72;34.50;;;0.70;99.90;;;;;;5138169;27;20034;-83
2022/12/19 00:54:03;;;;;;;48.88;34.80;;;0.80;99.90;;;;;;5189077;27;20094;-83
2022/12/19 00:56:32;;;;;;;45.53;34.03;;;0.80;99.90;;;;;;5155653;27;20125;-82
2022/12/19 00:58:58;;;;;;;50.38;34.67;;;0.80;99.90;;;;;;5065246;28;20094;-83
2022/12/19 01:01:36;;;;;;;48.33;34.63;;;0.80;99.90;;;;;;5021565;23;20493;-75
2022/12/19 01:04:04;;;;;;;51.05;34.25;;;0.80;99.90;;;;;;4935656;28;20051;-74
2022/12/19 01:06:29;;;;;;;46.28;34.17;;;0.80;99.90;;;;;;4808804;29;20146;-75
2022/12/19 01:08:55;;;;;;;50.17;33.67;;;0.80;99.90;;;;;;4482303;30;20692;-75
2022/12/19 01:14:17;;;;;;;49.90;35.38;;;0.90;99.90;;;;;;5154641;27;20043;-74
2022/12/19 01:16:43;;;;;;;50.88;35.17;;;0.80;99.90;;;;;;5150239;27;20046;-74
2022/12/19 01:19:08;;;;;;;45.58;33.70;;;0.90;99.90;;;;;;5116771;27;20132;-74
2022/12/19 01:21:34;;;;;;;47.47;34.13;;;0.90;99.90;;;;;;5093898;28;20488;-74
2022/12/19 01:24:01;;;;;;;49.03;35.90;;;0.90;99.90;;;;;;5005039;28;20050;-74
2022/12/19 01:26:26;;;;;;;46.65;33.15;;;1.00;99.90;;;;;;4853611;29;20583;-74
2022/12/19 01:28:52;;;;;;;50.03;34.63;;;1.00;99.90;;;;;;4704309;29;20055;-74
2022/12/19 01:33:58;;;;;;;47.33;34.22;;;0.90;99.90;;;;;;5212568;27;20589;-74
2022/12/19 01:36:24;;;;;;;50.70;34.58;;;1.00;99.90;;;;;;5149802;27;20045;-74
2022/12/19 01:38:50;;;;;;;49.85;35.03;;;1.00;99.90;;;;;;5126169;27;20400;-74
2022/12/19 01:41:15;;;;;;;48.85;34.42;;;1.00;99.90;;;;;;5137810;27;20027;-74
2022/12/19 01:43:58;;;;;;;51.40;35.25;;;1.00;99.90;;;;;;5061355;28;20054;-74
2022/12/19 01:46:29;;;;;;;51.95;36.53;;;1.10;99.90;;;;;;4901430;23;20045;-83
2022/12/19 01:48:55;;;;;;;51.83;35.40;;;1.00;99.90;;;;;;4798146;29;20052;-83
2022/12/19 01:51:24;;;;;;;53.00;36.90;;;1.00;99.90;;;;;;4773144;29;20073;-82
2022/12/19 01:53:55;;;;;;;53.45;36.38;;;1.10;99.90;;;;;;4709366;30;20078;-82
2022/12/19 01:56:46;;;;;;;57.00;37.95;;;1.00;99.90;;;;;;5201021;27;20136;-83
2022/12/19 01:59:24;;;;;;;59.42;37.80;;;1.00;99.90;;;;;;5142695;27;20040;-82
2022/12/19 02:01:57;;;;;;;61.80;38.72;;;1.00;99.90;;;;;;5110687;27;20044;-82
2022/12/19 02:04:25;;;;;;;;;;;1.00;99.90;;;;;;5089573;27;20040;-82
2022/12/19 02:06:51;;;;;;;71.82;40.15;;;1.00;99.90;;;;;;5093691;28;20289;-82
2022/12/19 02:09:17;;;;;;;70.35;40.88;;;1.00;99.90;;;;;;5011826;28;20042;-84
2022/12/19 02:11:43;;;;;;;64.75;39.63;;;1.00;99.90;;;;;;5022775;28;20100;-84
2022/12/19 02:14:09;;;;;;;70.95;41.42;;;1.00;99.90;;;;;;4977215;28;20040;-83
2022/12/19 02:16:45;;;;;;;73.75;42.90;;;1.00;99.90;;;;;;4937655;29;20086;-84
2022/12/19 02:23:20;;;;;;;100.82;53.50;;;1.00;99.90;;;;;;5209652;27;20414;-83
2022/12/19 02:26:17;;;;;;;76.07;45.10;;;1.10;99.90;;;;;;5114711;28;20058;-83
2022/12/19 02:28:43;;;;;;;81.18;43.15;;;1.00;99.90;;;;;;5101755;28;20044;-83
2022/12/19 02:31:20;;;;;;;77.75;44.03;;;1.00;99.90;;;;;;5126283;28;20103;-83
2022/12/19 02:34:09;;;;;;;81.72;44.20;;;1.00;99.90;;;;;;5069079;28;20124;-83
2022/12/19 02:36:45;;;;;;;86.72;45.00;;;1.10;99.90;;;;;;4940213;23;20043;-83
2022/12/19 02:39:16;;;;;;;80.30;44.75;;;1.10;99.90;;;;;;4878745;29;20527;-83
2022/12/19 02:41:52;;;;;;;79.55;45.33;;;1.10;99.90;;;;;;4860555;29;20060;-83
2022/12/19 02:44:34;;;;;;;85.40;47.03;;;1.10;99.90;;;;;;4757630;30;20513;-83
2022/12/19 02:47:13;;;;;;;90.55;45.15;;;1.10;99.90;;;;;;5204270;27;20143;-83
2022/12/19 02:49:38;;;;;;;91.88;48.20;;;1.20;99.90;;;;;;5139672;27;20058;-83
2022/12/19 02:52:31;;;;;;;95.05;48.75;;;1.20;99.90;;;;;;5160152;27;20038;-83
2022/12/19 02:55:10;;;;;;;88.32;49.80;;;1.20;99.90;;;;;;5096012;28;20049;-83
2022/12/19 02:57:44;;;;;;;102.82;49.05;;;1.20;99.90;;;;;;5047322;28;20053;-83
2022/12/19 03:00:16;;;;;;;96.00;48.83;;;1.20;99.90;;;;;;5010856;28;20049;-83
2022/12/19 03:03:08;;;;;;;104.50;52.53;;;1.20;99.90;;;;;;4955841;28;20075;-82
2022/12/19 03:06:05;;;;;;;92.83;49.27;;;1.30;99.90;;;;;;4904353;29;20490;-83
2022/12/19 03:08:42;;;;;;;98.45;48.85;;;1.30;99.90;;;;;;4777719;29;20045;-83
2022/12/19 03:11:15;;;;;;;96.25;51.20;;;1.30;99.90;;;;;;5212428;27;20151;-84
2022/12/19 03:13:58;;;;;;;106.85;50.60;;;1.30;99.90;;;;;;5139240;27;20404;-82
2022/12/19 03:16:24;;;;;;;110.32;51.78;;;1.30;99.90;;;;;;5107294;28;20084;-83
2022/12/19 03:18:53;;;;;;;108.78;51.65;;;1.30;99.90;;;;;;5089606;27;20046;-82
2022/12/19 03:21:33;;;;;;;106.38;52.97;;;1.40;99.90;;;;;;5104104;28;20044;-83
2022/12/19 03:24:00;;;;;;;103.53;53.58;;;1.40;99.90;;;;;;5009376;23;20081;-73
2022/12/19 03:26:30;;;;;;;99.45;52.40;;;1.40;99.90;;;;;;4907710;28;20055;-73
2022/12/19 03:29:00;;;;;;;100.25;52.13;;;1.40;99.90;;;;;;4663881;29;20097;-74
2022/12/19 03:31:31;;;;;;;124.43;55.40;;;1.50;99.90;;;;;;4399287;31;20075;-73
2022/12/19 03:34:20;;;;;;;100.28;52.35;;;1.50;99.90;;;;;;5178892;27;20142;-73
2022/12/19 03:36:51;;;;;;;114.55;54.28;;;1.50;99.90;;;;;;5118974;27;20040;-73
2022/12/19 03:39:19;;;;;;;111.97;53.03;;;1.50;99.90;;;;;;5096623;28;21665;-73
2022/12/19 03:44:34;;;;;;;107.18;55.45;;;1.60;99.90;;;;;;5008632;28;20054;-73
2022/12/19 03:47:20;;;;;;;128.55;56.25;;;1.60;99.90;;;;;;4917740;28;20512;-73
2022/12/19 03:49:47;;;;;;;110.63;55.22;;;1.60;99.90;;;;;;4656020;29;20052;-73
2022/12/19 03:52:23;;;;;;;118.13;57.90;;;1.60;99.90;;;;;;4367032;31;20596;-74
2022/12/19 03:56:55;;;;;;;117.75;57.08;;;1.60;99.90;;;;;;5153227;27;20484;-73
2022/12/19 03:59:44;;;;;;;124.68;57.17;;;1.70;99.90;;;;;;5084662;28;20068;-73
2022/12/19 04:02:12;;;;;;;116.93;54.50;;;1.70;99.90;;;;;;5063877;28;20037;-73
2022/12/19 04:04:42;;;;;;;116.80;56.25;;;1.70;99.90;;;;;;5075945;28;20036;-73
2022/12/19 04:07:09;;;;;;;101.28;54.30;;;1.70;99.90;;;;;;5014103;28;20042;-73
2022/12/19 04:09:36;;;;;;;117.63;56.05;;;1.80;99.90;;;;;;4847981;29;20517;-74
2022/12/19 04:12:07;;;;;;;104.68;54.38;;;1.80;99.90;;;;;;4795278;29;20052;-74
2022/12/19 04:14:35;;;;;;;112.10;57.00;;;1.80;99.90;;;;;;4518636;30;20154;-74
2022/12/19 04:19:27;;;;;;;118.40;56.00;;;1.80;99.90;;;;;;5197515;27;20128;-74
2022/12/19 04:22:02;;;;;;;109.10;55.13;;;1.90;99.90;;;;;;5110769;27;20046;-75
2022/12/19 04:24:33;;;;;;;124.95;57.03;;;1.90;99.90;;;;;;5111401;27;20141;-74
2022/12/19 04:27:00;;;;;;;103.85;54.28;;;2.00;99.90;;;;;;5072819;28;20055;-74
2022/12/19 04:29:30;;;;;;;115.60;55.55;;;2.00;99.90;;;;;;5010938;28;20053;-74
2022/12/19 04:31:56;;;;;;;108.45;56.03;;;2.00;99.90;;;;;;4952640;28;20051;-74
2022/12/19 04:34:21;;;;;;;113.65;55.80;;;2.00;99.90;;;;;;4800764;29;20056;-74
2022/12/19 04:36:49;;;;;;;116.03;54.38;;;2.00;99.90;;;;;;4649379;30;20399;-75
2022/12/19 04:41:11;;;;;;;118.32;54.30;;;2.10;99.90;;;;;;5159227;27;20615;-75
2022/12/19 04:43:36;;;;;;;125.32;57.55;;;2.10;99.90;;;;;;5097781;28;20044;-75
2022/12/19 04:46:02;;;;;;;141.90;58.13;;;2.10;99.90;;;;;;5045728;28;20049;-75
2022/12/19 04:48:28;;;;;;;134.88;56.40;;;2.10;99.90;;;;;;5077242;28;20040;-75
2022/12/19 04:50:55;;;;;;;150.30;58.42;;;2.10;99.90;;;;;;5016288;28;20135;-75
2022/12/19 04:53:21;;;;;;;129.80;57.83;;;2.10;99.90;;;;;;4989469;23;20053;-83
2022/12/19 04:55:46;;;;;;;153.30;59.67;;;2.20;99.90;;;;;;4896763;29;20505;-83
2022/12/19 04:58:12;;;;;;;117.13;55.85;;;2.20;99.90;;;;;;4715757;29;20051;-82
2022/12/19 05:03:06;;;;;;;143.65;59.10;;;2.20;99.90;;;;;;5202673;27;20373;-83
2022/12/19 05:05:32;;;;;;;119.68;54.83;;;2.30;99.90;;;;;;5132306;27;20388;-83
2022/12/19 05:07:57;;;;;;;118.75;56.15;;;2.20;99.90;;;;;;5149042;27;20038;-83
2022/12/19 05:10:23;;;;;;;134.38;57.13;;;2.30;99.90;;;;;;5135761;27;20092;-83
2022/12/19 05:12:49;;;;;;;142.52;57.90;;;2.30;99.90;;;;;;5124363;27;20481;-82
2022/12/19 05:15:14;;;;;;;126.95;57.42;;;2.30;99.90;;;;;;5008489;28;20051;-83
2022/12/19 05:17:40;;;;;;;134.73;55.05;;;2.30;99.90;;;;;;4957134;28;20077;-82
2022/12/19 05:20:06;;;;;;;161.02;58.55;;;2.40;99.90;;;;;;4737321;29;20251;-82
2022/12/19 05:25:10;;;;;;;154.82;58.35;;;2.40;99.90;;;;;;5215412;27;20140;-81
2022/12/19 05:27:35;;;;;;;135.85;55.08;;;2.50;99.90;;;;;;5154197;27;20039;-80
2022/12/19 05:30:01;;;;;;;124.10;54.85;;;2.50;99.90;;;;;;5123130;27;20439;-81
2022/12/19 05:32:30;;;;;;;131.82;54.25;;;2.50;99.90;;;;;;5119020;27;20039;-81
2022/12/19 05:34:56;;;;;;;108.68;52.13;;;2.50;99.90;;;;;;5006116;28;20090;-81
2022/12/19 05:37:22;;;;;;;135.30;52.33;;;2.50;99.90;;;;;;4897303;24;20090;-73
2022/12/19 05:39:47;;;;;;;146.82;54.83;;;2.60;99.90;;;;;;4759380;29;20052;-73
2022/12/19 05:42:13;;;;;;;134.45;52.92;;;2.60;99.90;;;;;;4595098;30;20055;-73
2022/12/19 05:44:38;;;;;;;123.47;51.40;;;2.60;99.90;;;;;;4317557;31;20518;-74
2022/12/19 05:47:11;;;;;;;111.18;49.28;;;2.60;99.90;;;;;;5189703;27;20129;-74
2022/12/19 05:49:38;;;;;;;133.85;52.72;;;2.60;99.90;;;;;;5136082;27;20391;-73
2022/12/19 05:52:04;;;;;;;110.20;48.58;;;2.60;99.90;;;;;;5126711;27;20396;-73
2022/12/19 05:54:30;;;;;;;96.38;49.33;;;2.60;99.90;;;;;;5147172;27;20131;-73
2022/12/19 05:56:55;;;;;;;107.47;48.72;;;2.60;99.90;;;;;;5083655;27;20038;-74
2022/12/19 05:59:21;;;;;;;114.95;49.72;;;2.70;99.90;;;;;;4958037;28;20375;-73
2022/12/19 06:01:46;;;;;;;95.40;47.83;;;2.80;99.90;;;;;;4879931;28;20081;-73
2022/12/19 06:04:12;;;;;;;119.72;50.05;;;2.70;99.90;;;;;;4596117;30;20397;-73
2022/12/19 06:06:38;;;;;;;111.63;50.00;;;2.80;99.90;;;;;;4254136;32;20422;-73
2022/12/19 06:09:15;;;;;;;115.95;48.97;;;2.80;99.90;;;;;;5173787;27;20141;-73
2022/12/19 06:11:41;;;;;;;136.45;51.63;;;2.90;99.90;;;;;;5148469;27;20047;-76
2022/12/19 06:14:06;;;;;;;116.20;49.15;;;2.80;99.90;;;;;;5105765;27;20044;-74
2022/12/19 06:16:32;;;;;;;133.65;49.65;;;2.90;99.90;;;;;;5093491;28;20475;-75
2022/12/19 06:19:00;;;;;;;121.90;48.33;;;2.90;99.90;;;;;;4981003;28;20491;-74
2022/12/19 06:21:25;;;;;;;144.75;49.55;;;2.90;99.90;;;;;;4907586;24;20091;-77
2022/12/19 06:23:51;;;;;;;129.32;47.05;;;2.90;99.90;;;;;;4858084;29;22158;-77
2022/12/19 06:26:19;;;;;;;111.43;45.90;;;3.00;99.90;;;;;;4812472;29;20062;-78
2022/12/19 06:31:41;;;;;;;98.40;44.88;;;2.90;99.90;;;;;;5177258;27;20137;-77
2022/12/19 06:34:09;;;;;;;140.63;48.78;;;3.10;99.90;;;;;;5140764;27;20035;-78
2022/12/19 06:36:35;;;;;;;131.93;46.95;;;3.10;99.90;;;;;;5142294;27;20043;-79
2022/12/19 06:39:01;;;;;;;108.10;43.28;;;3.10;99.90;;;;;;5112850;27;20455;-78
2022/12/19 06:44:14;;;;;;;109.25;43.97;;;3.20;99.90;;;;;;5019257;28;20097;-78
2022/12/19 06:46:40;;;;;;;116.95;44.15;;;3.30;99.90;;;;;;4959376;28;20557;-79
2022/12/19 06:49:06;;;;;;;93.50;42.40;;;3.30;99.90;;;;;;4950314;28;20050;-79
2022/12/19 06:51:32;;;;;;;88.78;42.22;;;3.30;99.90;;;;;;4933374;28;20048;-79
2022/12/19 06:53:57;;;;;;;98.30;42.08;;;3.40;99.90;;;;;;4834575;29;20077;-80
2022/12/19 06:56:35;;;;;;;90.03;42.72;;;3.40;99.90;;;;;;5208062;27;20136;-81
2022/12/19 06:59:01;;;;;;;111.20;43.35;;;3.40;99.90;;;;;;5152363;27;20030;-78
2022/12/19 07:01:38;;;;;;;81.40;40.60;;;3.50;99.90;;;;;;5102534;28;20088;-79
2022/12/19 07:04:05;;;;;;;110.85;43.42;;;3.50;99.90;;;;;;5092893;28;20086;-79
2022/12/19 07:06:31;;;;;;;112.35;43.03;;;3.50;99.90;;;;;;4995300;28;20048;-77
2022/12/19 07:08:56;;;;;;;121.55;44.15;;;3.60;99.90;;;;;;4870159;29;20133;-77
2022/12/19 07:11:34;;;;;;;106.75;42.15;;;3.60;99.90;;;;;;4786166;24;20508;-76
2022/12/19 07:14:08;;;;;;;117.18;40.47;;;3.70;99.90;;;;;;4598833;30;20058;-76
2022/12/19 07:16:49;;;;;;;;;;;;;;;;;;;;;
2022/12/19 07:22:31;;;;;;;99.13;39.47;;;3.60;99.90;;;;;;3995941;34;20070;-77
2022/12/19 07:27:44;;;;;;;97.30;39.72;;;3.70;99.90;;;;;;5193644;27;20144;-76
2022/12/19 07:30:18;;;;;;;107.63;39.13;;;3.80;99.90;;;;;;5096756;22;20047;-74
2022/12/19 07:32:57;;;;;;;94.00;37.67;;;3.90;99.90;;;;;;5054473;28;20044;-74
2022/12/19 07:35:28;;;;;;;93.80;38.72;;;3.90;99.90;;;;;;5045942;28;20047;-75
2022/12/19 07:38:01;;;;;;;87.03;36.97;;;3.90;99.90;;;;;;5064486;28;20037;-74
2022/12/19 07:41:17;;;;;;;74.97;34.88;;;3.90;99.90;;;;;;4949870;28;20056;-74
2022/12/19 07:43:44;;;;;;;90.45;36.45;;;4.00;99.90;;;;;;4865965;24;20087;-79
2022/12/19 07:46:10;;;;;;;96.93;37.65;;;4.00;99.90;;;;;;4913140;28;20104;-79
2022/12/19 07:48:36;;;;;;;82.72;36.60;;;4.10;99.90;;;;;;4898161;29;20109;-79
2022/12/19 07:51:09;;;;;;;118.78;40.08;;;4.10;99.90;;;;;;5201387;27;20128;-79
2022/12/19 07:53:34;;;;;;;85.47;35.17;;;4.20;99.90;;;;;;5152804;27;20042;-79
2022/12/19 07:56:00;;;;;;;90.28;37.72;;;4.20;99.90;;;;;;5142926;27;20044;-79
2022/12/19 07:58:25;;;;;;;61.15;33.13;;;4.30;99.90;;;;;;5150096;27;20130;-80
2022/12/19 08:00:59;;;;;;;86.13;35.35;;;4.30;99.90;;;;;;5131957;27;20050;-79
2022/12/19 08:03:25;;;;;;;73.93;34.97;;;4.30;99.90;;;;;;5081245;28;20052;-78
2022/12/19 08:05:51;;;;;;;73.82;35.67;;;4.40;99.90;;;;;;5040403;28;20041;-79
2022/12/19 08:08:17;;;;;;;94.00;37.35;;;4.40;99.90;;;;;;5077046;28;20109;-79
2022/12/19 08:10:42;;;;;;;106.05;37.55;;;4.50;99.90;;;;;;5028749;28;20050;-79
2022/12/19 08:13:08;;;;;;;91.38;35.70;;;4.50;99.90;;;;;;4917264;28;20040;-79
2022/12/19 08:15:46;;;;;;;105.25;36.80;;;4.50;99.90;;;;;;5212546;27;20139;-79
2022/12/19 08:18:11;;;;;;;64.00;33.72;;;4.50;99.90;;;;;;5152067;27;20042;-79
2022/12/19 08:20:37;;;;;;;77.45;34.22;;;4.60;99.90;;;;;;5152691;27;20070;-79
2022/12/19 08:23:03;;;;;;;80.13;34.40;;;4.60;99.90;;;;;;5107631;28;20490;-78
2022/12/19 08:25:28;;;;;;;93.78;36.83;;;4.60;99.90;;;;;;5004628;28;20102;-78
2022/12/19 08:27:54;;;;;;;69.75;34.08;;;4.70;99.90;;;;;;4959909;23;20053;-79
2022/12/19 08:30:19;;;;;;;65.35;34.50;;;4.70;99.90;;;;;;4920318;29;20048;-78
2022/12/19 08:32:45;;;;;;;75.80;35.25;;;4.80;99.90;;;;;;4925687;28;20099;-79
2022/12/19 08:35:22;;;;;;;85.40;37.80;;;4.80;99.90;;;;;;5205998;27;20454;-78
2022/12/19 08:37:48;;;;;;;101.22;38.38;;;4.90;99.90;;;;;;5119128;27;20043;-79
2022/12/19 08:40:14;;;;;;;69.88;34.45;;;4.90;99.90;;;;;;5139157;27;20051;-79
2022/12/19 08:42:39;;;;;;;74.30;35.90;;;5.00;99.90;;;;;;5154820;27;20134;-79
2022/12/19 08:45:05;;;;;;;77.00;36.33;;;5.00;99.90;;;;;;5104293;28;20045;-79
2022/12/19 08:47:31;;;;;;;100.65;38.42;;;5.10;99.90;;;;;;5030683;28;20622;-78
2022/12/19 08:49:56;;;;;;;87.55;37.08;;;5.10;99.90;;;;;;5003980;28;20085;-79
2022/12/19 08:52:22;;;;;;;73.65;36.15;;;5.10;99.90;;;;;;4973241;28;20394;-79
2022/12/19 08:54:47;;;;;;;69.18;36.85;;;5.10;99.90;;;;;;4959534;28;20508;-79
2022/12/19 08:57:13;;;;;;;78.82;38.22;;;5.20;99.90;;;;;;4908875;29;20048;-79
2022/12/19 08:59:50;;;;;;;70.28;35.42;;;5.30;99.90;;;;;;5220611;27;20147;-79
2022/12/19 09:02:16;;;;;;;73.75;36.67;;;5.30;99.90;;;;;;5160310;27;20038;-79
2022/12/19 09:04:41;;;;;;;65.68;35.38;;;5.40;99.90;;;;;;5151834;27;20096;-79
2022/12/19 09:07:07;;;;;;;68.93;35.60;;;5.40;99.90;;;;;;5134135;27;20038;-79
2022/12/19 09:09:32;;;;;;;88.03;38.28;;;5.40;99.90;;;;;;5136214;27;20043;-79
2022/12/19 09:11:58;;;;;;;60.65;34.08;;;5.50;99.90;;;;;;5135936;27;20043;-81
2022/12/19 09:14:24;;;;;;;73.40;35.90;;;5.60;99.90;;;;;;5115638;27;20105;-80
2022/12/19 09:16:49;;;;;;;69.60;35.97;;;5.60;99.90;;;;;;5061643;28;20100;-80
2022/12/19 09:19:15;;;;;;;64.18;34.17;;;5.60;99.90;;;;;;5023728;28;20049;-80
2022/12/19 09:21:41;;;;;;;76.70;35.92;;;5.70;99.90;;;;;;4957273;28;20043;-80
2022/12/19 09:24:14;;;;;;;86.45;36.85;;;5.80;99.90;;;;;;5206183;27;20132;-80
2022/12/19 09:26:41;;;;;;;71.60;35.45;;;5.80;99.90;;;;;;5150998;27;20047;-80
2022/12/19 09:29:07;;;;;;;57.30;32.85;;;5.80;99.90;;;;;;5131953;27;20045;-80
2022/12/19 09:31:33;;;;;;;69.10;34.83;;;5.90;99.90;;;;;;5125042;27;20072;-80
2022/12/19 09:33:58;;;;;;;98.68;37.55;;;5.90;99.90;;;;;;5065895;28;20406;-80
2022/12/19 09:36:24;;;;;;;74.25;35.65;;;5.90;99.90;;;;;;5068645;28;20048;-80
2022/12/19 09:38:56;;;;;;;74.65;34.45;;;6.00;99.90;;;;;;5043743;28;20081;-80
2022/12/19 09:41:50;;;;;;;60.63;33.60;;;6.00;99.90;;;;;;4988455;28;20096;-79
2022/12/19 09:44:43;;;;;;;78.95;35.63;;;6.10;99.90;;;;;;4879117;29;20128;-79
2022/12/19 09:49:45;;;;;;;77.57;33.88;;;6.20;99.90;;;;;;5206599;27;20128;-80
2022/12/19 09:52:39;;;;;;;68.63;34.20;;;6.20;99.90;;;;;;5157954;27;20042;-79
2022/12/19 09:55:11;;;;;;;84.72;34.05;;;6.20;99.90;;;;;;5112429;27;20055;-80
2022/12/19 09:58:03;;;;;;;60.87;32.60;;;6.20;99.90;;;;;;5115229;27;20089;-80
2022/12/19 10:00:37;;;;;;;82.77;34.43;;;6.30;99.90;;;;;;5018591;28;20318;-79
2022/12/19 10:03:16;;;;;;;80.53;32.97;;;6.30;99.90;;;;;;4917265;28;20077;-81
2022/12/19 10:05:48;;;;;;;49.00;29.85;;;6.30;99.90;;;;;;4711427;30;20081;-81
2022/12/19 10:08:30;;;;;;;53.47;30.33;;;6.30;99.90;;;;;;4349002;31;20058;-81
2022/12/19 10:14:20;;;;;;;59.95;30.55;;;6.40;99.90;;;;;;5221609;27;20333;-80
2022/12/19 10:16:56;;;;;;;64.93;30.80;;;6.40;99.90;;;;;;5128042;27;20059;-81
2022/12/19 10:19:31;;;;;;;58.78;30.33;;;6.40;99.90;;;;;;5106732;28;20089;-82
2022/12/19 10:22:20;;;;;;;47.53;27.08;;;6.50;99.90;;;;;;5121099;27;20381;-81
2022/12/19 10:25:08;;;;;;;41.30;26.38;;;6.50;99.90;;;;;;5051325;28;20030;-80
2022/12/19 10:27:50;;;;;;;56.97;29.02;;;6.60;99.90;;;;;;4910262;29;20051;-81
2022/12/19 10:30:21;;;;;;;45.70;26.33;;;6.60;99.90;;;;;;4665799;30;20140;-80
2022/12/19 10:33:09;;;;;;;55.97;28.60;;;6.70;99.90;;;;;;4374041;31;20068;-81
2022/12/19 10:39:26;;;;;;;40.65;25.05;;;6.80;99.90;;;;;;5227772;27;20123;-81
2022/12/19 10:41:58;;;;;;;35.88;22.73;;;6.80;99.90;;;;;;5185960;27;20133;-81
2022/12/19 10:44:29;;;;;;;37.10;23.80;;;6.80;99.90;;;;;;5184751;27;20046;-80
2022/12/19 10:46:54;;;;;;;39.03;24.10;;;6.90;99.90;;;;;;5135894;27;20055;-81
2022/12/19 10:49:29;;;;;;;38.20;23.02;;;6.90;99.90;;;;;;5127368;27;20039;-81
2022/12/19 10:52:04;;;;;;;36.78;22.33;;;6.90;99.90;;;;;;5026507;23;20095;-74
2022/12/19 10:54:42;;;;;;;42.60;23.70;;;7.00;99.90;;;;;;4863062;29;20121;-74
2022/12/19 10:57:50;;;;;;;32.08;21.23;;;7.00;99.90;;;;;;4783892;29;20507;-74
2022/12/19 11:00:28;;;;;;;35.58;21.40;;;7.10;99.90;;;;;;4603458;30;20068;-74
2022/12/19 11:03:15;;;;;;;39.38;23.30;;;7.10;99.90;;;;;;4412204;31;20098;-74
2022/12/19 11:05:57;;;;;;;40.38;23.50;;;7.10;99.90;;;;;;4257929;33;20509;-74
2022/12/19 11:08:40;;;;;;;28.10;19.38;;;7.10;99.90;;;;;;4134522;34;20071;-75
2022/12/19 11:14:31;;;;;;;31.00;20.63;;;7.20;99.90;;;;;;5211626;27;20573;-74
2022/12/19 11:17:00;;;;;;;29.55;19.95;;;7.10;99.90;;;;;;5135436;27;20148;-75
2022/12/19 11:19:38;;;;;;;36.80;21.50;;;7.10;99.90;;;;;;5135416;27;20051;-74
2022/12/19 11:22:25;;;;;;;30.67;20.58;;;7.10;99.90;;;;;;5122183;28;20051;-75
2022/12/19 11:24:57;;;;;;;28.98;20.17;;;7.20;99.90;;;;;;5110109;27;20475;-76
2022/12/19 11:27:31;;;;;;;30.27;20.63;;;7.20;99.90;;;;;;5063384;22;20577;-79
2022/12/19 11:29:59;;;;;;;28.58;19.48;;;7.20;99.90;;;;;;4999972;28;20056;-78
2022/12/19 11:32:34;;;;;;;42.63;21.10;;;7.20;99.90;;;;;;4987012;28;20680;-78
2022/12/19 11:35:16;;;;;;;30.25;19.13;;;7.20;99.90;;;;;;4878404;29;20061;-78
2022/12/19 11:40:40;;;;;;;30.70;20.45;;;7.20;99.90;;;;;;5213071;27;20128;-79
2022/12/19 11:43:40;;;;;;;27.17;19.23;;;7.20;99.90;;;;;;5136819;27;20042;-80
2022/12/19 11:46:21;;;;;;;32.53;20.45;;;7.20;99.90;;;;;;5090684;28;20048;-78
2022/12/19 11:49:01;;;;;;;28.35;19.67;;;7.30;99.90;;;;;;5067708;28;20127;-79
2022/12/19 11:51:42;;;;;;;28.52;19.13;;;7.30;99.90;;;;;;5060872;28;20083;-79
2022/12/19 11:54:21;;;;;;;26.08;18.63;;;7.30;99.90;;;;;;5025001;28;20038;-80
2022/12/19 11:56:47;;;;;;;31.77;19.23;;;7.30;99.90;;;;;;5017841;28;20092;-79
2022/12/19 11:59:23;;;;;;;24.23;19.38;;;7.40;99.90;;;;;;4978302;28;20070;-79
2022/12/19 12:02:27;;;;;;;24.10;18.42;;;7.40;99.90;;;;;;5210860;27;20132;-79
2022/12/19 12:05:21;;;;;;;23.15;18.25;;;7.40;99.90;;;;;;5141463;27;20042;-79
2022/12/19 12:08:14;;;;;;;25.20;18.48;;;7.40;99.90;;;;;;5104364;28;20054;-79
2022/12/19 12:10:48;;;;;;;25.77;18.38;;;7.40;99.90;;;;;;5046191;28;20057;-79
2022/12/19 12:13:25;;;;;;;25.27;18.35;;;7.40;99.90;;;;;;5033380;28;20072;-79
2022/12/19 12:20:09;;;;;;;20.38;17.17;;;7.40;99.90;;;;;;4877534;29;20079;-83
2022/12/19 12:22:50;;;;;;;24.38;18.05;;;7.40;99.90;;;;;;4655404;29;20119;-82
2022/12/19 12:25:29;;;;;;;23.13;17.15;;;7.50;99.90;;;;;;4321447;32;20040;-81
2022/12/19 12:28:30;;;;;;;28.70;19.15;;;7.50;99.90;;;;;;5231834;27;19918;-79
2022/12/19 12:31:06;;;;;;;26.00;16.85;;;7.50;99.90;;;;;;5144010;27;20046;-79
2022/12/19 12:34:09;;;;;;;22.42;17.35;;;7.50;99.90;;;;;;5148814;27;20045;-78
2022/12/19 12:37:09;;;;;;;22.52;16.92;;;7.50;99.90;;;;;;5117220;28;20039;-79
2022/12/19 12:39:41;;;;;;;26.77;17.90;;;7.50;99.90;;;;;;5080592;28;20514;-79
2022/12/19 12:42:21;;;;;;;21.58;16.80;;;7.50;99.90;;;;;;4994683;28;20038;-79
2022/12/19 12:44:49;;;;;;;23.17;17.50;;;7.50;99.90;;;;;;4959743;28;20075;-79
2022/12/19 12:47:19;;;;;;;25.73;17.35;;;7.50;99.90;;;;;;4973217;28;20066;-78
2022/12/19 12:49:51;;;;;;;22.77;16.83;;;7.50;99.90;;;;;;4900238;28;20033;-79
2022/12/19 12:52:36;;;;;;;25.33;17.73;;;7.50;99.90;;;;;;5202698;27;20141;-79
2022/12/19 12:55:04;;;;;;;22.92;16.33;;;7.50;99.90;;;;;;5131184;27;20043;-79
2022/12/19 12:57:36;;;;;;;21.92;16.67;;;7.50;99.90;;;;;;5131146;27;20130;-78
2022/12/19 13:00:16;;;;;;;22.98;17.17;;;7.60;99.90;;;;;;5107159;28;20396;-80
2022/12/19 13:02:46;;;;;;;23.20;16.10;;;7.60;99.90;;;;;;4996229;28;20112;-78
2022/12/19 13:05:47;;;;;;;19.52;15.85;;;7.60;99.90;;;;;;4966802;23;20048;-75
2022/12/19 13:08:44;;;;;;;18.85;15.55;;;7.60;99.90;;;;;;4747674;29;20145;-75
2022/12/19 13:12:58;;;;;;;21.10;15.45;;;7.70;99.90;;;;;;4615122;30;20541;-75
2022/12/19 13:14:38;;;;;;;21.50;15.18;;;7.70;99.90;;;;;;4379442;31;20401;-74
2022/12/19 13:19:56;;;;;;;17.48;14.43;;;7.70;99.90;;;;;;5172154;27;20371;-75
2022/12/19 13:22:38;;;;;;;17.98;14.40;;;7.80;99.90;;;;;;5104900;27;20049;-75
2022/12/19 13:25:36;;;;;;;20.42;15.43;;;7.80;99.90;;;;;;5101484;28;20058;-75
2022/12/19 13:28:23;;;;;;;18.58;15.00;;;7.80;99.90;;;;;;5052068;28;20496;-75
2022/12/19 13:31:00;;;;;;;17.23;13.95;;;7.80;99.90;;;;;;4966942;28;20698;-75
2022/12/19 13:33:52;;;;;;;16.58;13.68;;;7.80;99.90;;;;;;4760745;29;20043;-75
2022/12/19 13:36:51;;;;;;;16.15;13.57;;;7.80;99.90;;;;;;4578417;30;21654;-75
2022/12/19 13:39:44;;;;;;;16.08;12.48;;;7.90;99.90;;;;;;4162123;32;20154;-75
2022/12/19 13:45:27;;;;;;;14.32;11.93;;;7.90;99.90;;;;;;5126782;27;20044;-75
2022/12/19 13:47:56;;;;;;;14.32;12.15;;;7.90;99.90;;;;;;5117577;27;20102;-75
2022/12/19 13:50:40;;;;;;;14.32;11.88;;;7.90;99.90;;;;;;5092492;28;20048;-75
2022/12/19 13:53:16;;;;;;;;;;;7.80;99.90;;;;;;5048882;23;20049;-80
2022/12/19 13:55:41;;;;;;;15.10;11.35;;;7.80;99.90;;;;;;4925171;28;19929;-80
2022/12/19 13:58:20;;;;;;;13.27;11.35;;;7.80;99.90;;;;;;4964815;28;20035;-80
2022/12/19 14:00:46;;;;;;;15.02;11.23;;;7.80;99.90;;;;;;4954293;28;20137;-80
2022/12/19 14:03:39;;;;;;;13.80;11.13;;;7.80;99.90;;;;;;5194219;27;20154;-80
2022/12/19 14:06:15;;;;;;;14.75;11.07;;;7.80;99.90;;;;;;5144797;27;20050;-80
2022/12/19 14:08:44;;;;;;;12.52;10.55;;;7.80;99.90;;;;;;5120839;27;20413;-80